Time;durP1;ratioP1;P1;durP2;ratioP2;P2;SDS_P1;SDS_P2;PMS_P1;PMS_P2;Temp;Humidity;BMP_temperature;BMP_pressure;BME280_temperature;BME280_humidity;BME280_pressure;Samples;Min_cycle;Max_cycle;Signal;HPM_P1;HPM_P2
2024/01/21 00:02:10;;;;;;;;;36.25;30.25;;;;;;;;5094528;27;46705;-61
2024/01/21 00:04:36;;;;;;;;;39.75;33.50;;;;;;;;5093939;27;46514;-60
2024/01/21 00:07:01;;;;;;;;;36.67;30.67;;;;;;;;5095297;27;45401;-61
2024/01/21 00:09:27;;;;;;;;;37.33;34.67;;;;;;;;5094887;27;45349;-60
2024/01/21 00:11:52;;;;;;;;;34.50;30.50;;;;;;;;5094456;27;45487;-61
2024/01/21 00:14:17;;;;;;;;;37.33;27.67;;;;;;;;5095447;27;45348;-60
2024/01/21 00:16:42;;;;;;;;;28.33;18.00;;;;;;;;5094035;27;46023;-61
2024/01/21 00:19:08;;;;;;;;;23.00;19.67;;;;;;;;5094006;27;45515;-61
2024/01/21 00:21:33;;;;;;;;;30.67;24.00;;;;;;;;5091458;27;45298;-60
2024/01/21 00:23:58;;;;;;;;;29.33;23.33;;;;;;;;5092153;27;45484;-60
2024/01/21 00:26:24;;;;;;;;;37.50;28.50;;;;;;;;5094300;27;45541;-60
2024/01/21 00:28:49;;;;;;;;;34.75;30.00;;;;;;;;5095336;27;45502;-61
2024/01/21 00:31:14;;;;;;;;;31.00;26.33;;;;;;;;5093497;27;45587;-60
2024/01/21 00:33:39;;;;;;;;;26.33;23.33;;;;;;;;5093789;27;48557;-60
2024/01/21 00:36:05;;;;;;;;;29.33;25.00;;;;;;;;5085617;27;45556;-60
2024/01/21 00:38:30;;;;;;;;;31.75;25.25;;;;;;;;5080992;28;45356;-60
2024/01/21 00:40:55;;;;;;;;;19.00;18.00;;;;;;;;5079547;28;45301;-61
2024/01/21 00:43:20;;;;;;;;;34.33;29.00;;;;;;;;5079954;28;47103;-60
2024/01/21 00:45:46;;;;;;;;;37.33;29.00;;;;;;;;5081310;27;45320;-61
2024/01/21 00:48:11;;;;;;;;;31.67;26.00;;;;;;;;5081449;27;45310;-60
2024/01/21 00:50:36;;;;;;;;;36.67;29.00;;;;;;;;5080434;28;45688;-60
2024/01/21 00:53:01;;;;;;;;;31.33;26.33;;;;;;;;5081020;27;46366;-60
2024/01/21 00:55:26;;;;;;;;;25.00;23.33;;;;;;;;5080606;27;45552;-60
2024/01/21 00:57:52;;;;;;;;;31.00;28.00;;;;;;;;5080498;28;45291;-60
2024/01/21 01:00:17;;;;;;;;;29.67;21.33;;;;;;;;5081006;28;45526;-60
2024/01/21 01:02:42;;;;;;;;;24.00;21.25;;;;;;;;5080999;28;46323;-60
2024/01/21 01:05:08;;;;;;;;;29.67;28.33;;;;;;;;5079543;27;45814;-60
2024/01/21 01:07:33;;;;;;;;;24.67;22.33;;;;;;;;5080960;28;45500;-60
2024/01/21 01:09:58;;;;;;;;;37.50;31.75;;;;;;;;5080976;27;45411;-61
2024/01/21 01:12:24;;;;;;;;;35.00;30.67;;;;;;;;5079527;28;47314;-60
2024/01/21 01:14:49;;;;;;;;;29.75;23.25;;;;;;;;5080861;27;45318;-60
2024/01/21 01:17:14;;;;;;;;;23.33;21.67;;;;;;;;5080434;28;45370;-60
2024/01/21 01:19:40;;;;;;;;;31.50;26.50;;;;;;;;5079705;27;45290;-60
2024/01/21 01:22:06;;;;;;;;;24.25;20.75;;;;;;;;5074659;28;47313;-60
2024/01/21 01:24:31;;;;;;;;;22.25;15.00;;;;;;;;5080406;27;45327;-61
2024/01/21 01:26:56;;;;;;;;;32.00;27.33;;;;;;;;5079149;27;45460;-60
2024/01/21 01:29:21;;;;;;;;;31.67;28.67;;;;;;;;5078923;27;45449;-60
2024/01/21 01:31:46;;;;;;;;;45.00;39.33;;;;;;;;5080607;28;46154;-60
2024/01/21 01:34:12;;;;;;;;;23.33;23.00;;;;;;;;5080939;27;45526;-60
2024/01/21 01:36:38;;;;;;;;;32.25;28.75;;;;;;;;5079701;27;45624;-60
2024/01/21 01:39:03;;;;;;;;;28.25;25.00;;;;;;;;5080302;28;45643;-60
2024/01/21 01:41:28;;;;;;;;;28.67;22.67;;;;;;;;5080509;28;46067;-60
2024/01/21 01:43:53;;;;;;;;;20.33;20.33;;;;;;;;5080248;27;45287;-60
2024/01/21 01:46:19;;;;;;;;;27.50;24.00;;;;;;;;5080451;27;45427;-60
2024/01/21 01:48:44;;;;;;;;;34.25;29.50;;;;;;;;5082043;27;45376;-60
2024/01/21 01:51:09;;;;;;;;;22.00;15.50;;;;;;;;5076789;28;47563;-60
2024/01/21 01:53:36;;;;;;;;;35.67;29.67;;;;;;;;5078621;27;45743;-60
2024/01/21 01:56:02;;;;;;;;;29.25;25.00;;;;;;;;5078363;28;45380;-60
2024/01/21 01:58:27;;;;;;;;;26.75;25.75;;;;;;;;5078825;28;45670;-60
2024/01/21 02:00:52;;;;;;;;;22.75;22.50;;;;;;;;5078832;27;46405;-60
2024/01/21 02:03:18;;;;;;;;;32.00;24.25;;;;;;;;5079845;28;45289;-60
2024/01/21 02:05:43;;;;;;;;;26.50;18.75;;;;;;;;5076835;28;45405;-60
2024/01/21 02:08:08;;;;;;;;;22.00;21.33;;;;;;;;5078273;28;45452;-60
2024/01/21 02:10:34;;;;;;;;;28.75;25.25;;;;;;;;5076547;27;47304;-60
2024/01/21 02:12:59;;;;;;;;;31.33;26.00;;;;;;;;5079614;28;45294;-60
2024/01/21 02:15:24;;;;;;;;;35.67;25.67;;;;;;;;5079009;28;45407;-60
2024/01/21 02:17:50;;;;;;;;;29.00;26.33;;;;;;;;5071251;28;45703;-60
2024/01/21 02:20:15;;;;;;;;;29.50;25.50;;;;;;;;5078708;27;46470;-60
2024/01/21 02:22:40;;;;;;;;;32.75;27.75;;;;;;;;5072961;28;45726;-60
2024/01/21 02:25:06;;;;;;;;;26.00;20.50;;;;;;;;5077362;28;45788;-60
2024/01/21 02:27:31;;;;;;;;;29.75;22.00;;;;;;;;5077645;27;45453;-60
2024/01/21 02:29:57;;;;;;;;;33.75;25.25;;;;;;;;5078902;27;45992;-60
2024/01/21 02:32:22;;;;;;;;;28.33;24.67;;;;;;;;5078789;28;45440;-60
2024/01/21 02:34:47;;;;;;;;;30.33;25.00;;;;;;;;5078344;28;45485;-60
2024/01/21 02:37:12;;;;;;;;;29.67;23.00;;;;;;;;5076769;27;45617;-61
2024/01/21 02:39:38;;;;;;;;;26.00;23.33;;;;;;;;5077989;28;47420;-60
2024/01/21 02:42:03;;;;;;;;;32.33;23.00;;;;;;;;5078030;28;45500;-60
2024/01/21 02:44:28;;;;;;;;;32.75;26.00;;;;;;;;5079585;27;45428;-60
2024/01/21 02:46:53;;;;;;;;;28.33;28.33;;;;;;;;5078848;27;45661;-61
2024/01/21 02:49:21;;;;;;;;;25.67;23.33;;;;;;;;5076892;28;47499;-60
2024/01/21 02:51:46;;;;;;;;;27.50;24.75;;;;;;;;5078918;28;45888;-60
2024/01/21 02:54:11;;;;;;;;;32.67;28.67;;;;;;;;5077734;27;45336;-60
2024/01/21 02:56:36;;;;;;;;;35.00;31.67;;;;;;;;5077754;28;45228;-60
2024/01/21 02:59:01;;;;;;;;;34.00;27.00;;;;;;;;5078841;27;46122;-60
2024/01/21 03:01:27;;;;;;;;;25.00;22.00;;;;;;;;5079465;28;45500;-60
2024/01/21 03:03:52;;;;;;;;;33.25;26.00;;;;;;;;5078824;28;45488;-60
2024/01/21 03:06:17;;;;;;;;;29.00;22.67;;;;;;;;5078901;28;45334;-60
2024/01/21 03:08:42;;;;;;;;;27.25;20.25;;;;;;;;5078058;27;46471;-60
2024/01/21 03:11:07;;;;;;;;;22.00;20.33;;;;;;;;5076246;28;45405;-60
2024/01/21 03:13:33;;;;;;;;;32.00;24.33;;;;;;;;5078851;27;45583;-60
2024/01/21 03:15:58;;;;;;;;;32.33;25.00;;;;;;;;5074553;28;45294;-61
2024/01/21 03:18:25;;;;;;;;;29.67;26.00;;;;;;;;5075480;28;45481;-60
2024/01/21 03:20:50;;;;;;;;;30.75;27.50;;;;;;;;5077740;28;45365;-60
2024/01/21 03:23:15;;;;;;;;;27.67;23.67;;;;;;;;5073585;27;45444;-60
2024/01/21 03:25:40;;;;;;;;;30.67;23.33;;;;;;;;5075959;27;45874;-60
2024/01/21 03:28:06;;;;;;;;;20.33;18.67;;;;;;;;5078368;28;45454;-60
2024/01/21 03:30:31;;;;;;;;;22.50;18.25;;;;;;;;5078856;28;45357;-60
2024/01/21 03:32:56;;;;;;;;;26.33;22.67;;;;;;;;5078432;27;45386;-60
2024/01/21 03:35:21;;;;;;;;;31.00;26.33;;;;;;;;5077028;28;45430;-60
2024/01/21 03:37:47;;;;;;;;;23.33;23.33;;;;;;;;5077417;28;46454;-60
2024/01/21 03:40:12;;;;;;;;;24.25;21.50;;;;;;;;5077323;28;45745;-60
2024/01/21 03:42:38;;;;;;;;;29.00;23.33;;;;;;;;5078822;27;45512;-60
2024/01/21 03:45:03;;;;;;;;;25.00;22.75;;;;;;;;5078060;27;45516;-60
2024/01/21 03:47:29;;;;;;;;;27.50;21.25;;;;;;;;5077781;27;45518;-60
2024/01/21 03:49:54;;;;;;;;;26.00;22.00;;;;;;;;5077678;27;45587;-60
2024/01/21 03:52:20;;;;;;;;;24.33;22.00;;;;;;;;5077555;28;45464;-60
2024/01/21 03:54:45;;;;;;;;;28.50;20.50;;;;;;;;5078469;27;45449;-60
2024/01/21 03:57:11;;;;;;;;;25.33;22.33;;;;;;;;5077966;27;45469;-60
2024/01/21 03:59:36;;;;;;;;;23.33;22.00;;;;;;;;5078423;28;45299;-61
2024/01/21 04:02:01;;;;;;;;;28.33;24.67;;;;;;;;5078492;27;45227;-60
2024/01/21 04:04:27;;;;;;;;;29.33;25.00;;;;;;;;5078349;27;45284;-60
2024/01/21 04:06:52;;;;;;;;;30.75;26.00;;;;;;;;5075882;28;46695;-60
2024/01/21 04:09:23;;;;;;;;;27.67;24.67;;;;;;;;5078590;28;45298;-60
2024/01/21 04:11:48;;;;;;;;;36.00;30.00;;;;;;;;5077166;28;45663;-60
2024/01/21 04:14:13;;;;;;;;;25.00;20.00;;;;;;;;5080672;28;46321;-60
2024/01/21 04:16:39;;;;;;;;;26.33;22.33;;;;;;;;5081004;27;45462;-60
2024/01/21 04:19:04;;;;;;;;;37.50;27.50;;;;;;;;5081609;28;46406;-60
2024/01/21 04:21:29;;;;;;;;;37.67;23.33;;;;;;;;5078311;27;45408;-60
2024/01/21 04:23:54;;;;;;;;;30.33;25.33;;;;;;;;5078331;28;45737;-60
2024/01/21 04:26:20;;;;;;;;;31.33;26.33;;;;;;;;5081421;27;45531;-60
2024/01/21 04:28:45;;;;;;;;;29.25;26.00;;;;;;;;5081624;28;45431;-60
2024/01/21 04:31:10;;;;;;;;;24.67;20.33;;;;;;;;5081946;28;45487;-60
2024/01/21 04:33:36;;;;;;;;;24.25;19.75;;;;;;;;5080293;28;45550;-60
2024/01/21 04:36:03;;;;;;;;;23.00;22.00;;;;;;;;5080126;27;46281;-60
2024/01/21 04:38:28;;;;;;;;;20.75;20.00;;;;;;;;5081609;27;45759;-60
2024/01/21 04:40:53;;;;;;;;;25.00;19.00;;;;;;;;5081727;27;45743;-60
2024/01/21 04:43:18;;;;;;;;;22.33;16.00;;;;;;;;5112601;27;45801;-60
2024/01/21 04:45:43;;;;;;;;;16.67;16.67;;;;;;;;5079718;27;46599;-60
2024/01/21 04:48:09;;;;;;;;;20.00;19.33;;;;;;;;5081069;27;45255;-60
2024/01/21 04:50:34;;;;;;;;;23.33;18.67;;;;;;;;5081529;27;45232;-60
2024/01/21 04:52:59;;;;;;;;;13.67;12.00;;;;;;;;5081045;28;45322;-60
2024/01/21 04:55:24;;;;;;;;;21.33;17.33;;;;;;;;5081231;28;45346;-60
2024/01/21 04:57:49;;;;;;;;;22.67;20.00;;;;;;;;5081085;27;45397;-60
2024/01/21 05:00:15;;;;;;;;;16.33;16.33;;;;;;;;5081106;27;45472;-60
2024/01/21 05:02:40;;;;;;;;;19.75;13.00;;;;;;;;5081021;28;45320;-60
2024/01/21 05:05:05;;;;;;;;;20.33;16.67;;;;;;;;5080982;27;45415;-60
2024/01/21 05:07:31;;;;;;;;;13.50;11.75;;;;;;;;5080663;28;45366;-60
2024/01/21 05:09:56;;;;;;;;;15.67;15.67;;;;;;;;5081330;27;45509;-60
2024/01/21 05:12:21;;;;;;;;;13.00;12.00;;;;;;;;5080005;28;45309;-60
2024/01/21 05:14:46;;;;;;;;;16.00;15.33;;;;;;;;5080626;27;45439;-60
2024/01/21 05:17:11;;;;;;;;;17.00;15.33;;;;;;;;5079722;27;45925;-60
2024/01/21 05:19:37;;;;;;;;;19.33;15.00;;;;;;;;5080825;27;45314;-60
2024/01/21 05:22:02;;;;;;;;;16.00;12.33;;;;;;;;5074313;28;45498;-60
2024/01/21 05:24:27;;;;;;;;;15.00;15.00;;;;;;;;5078993;28;47104;-60
2024/01/21 05:26:52;;;;;;;;;14.33;12.00;;;;;;;;5113657;27;45442;-60
2024/01/21 05:29:18;;;;;;;;;17.33;15.00;;;;;;;;5080537;27;45544;-60
2024/01/21 05:31:43;;;;;;;;;17.25;15.00;;;;;;;;5078379;28;45456;-60
2024/01/21 05:34:09;;;;;;;;;12.00;12.00;;;;;;;;5079508;28;45605;-60
2024/01/21 05:36:34;;;;;;;;;13.67;9.00;;;;;;;;5077599;27;45457;-60
2024/01/21 05:38:59;;;;;;;;;16.50;13.50;;;;;;;;5080213;27;45520;-60
2024/01/21 05:41:28;;;;;;;;;15.00;14.00;;;;;;;;5079161;28;45476;-60
2024/01/21 05:43:53;;;;;;;;;13.25;11.50;;;;;;;;5079319;27;45842;-60
2024/01/21 05:46:18;;;;;;;;;11.00;10.33;;;;;;;;5111784;27;45803;-60
2024/01/21 05:48:44;;;;;;;;;16.33;12.67;;;;;;;;5080250;27;45660;-60
2024/01/21 05:51:09;;;;;;;;;14.00;11.33;;;;;;;;5078972;28;45413;-60
2024/01/21 05:53:34;;;;;;;;;14.00;13.00;;;;;;;;5080366;27;45512;-60
2024/01/21 05:55:59;;;;;;;;;10.33;10.33;;;;;;;;5077687;28;45449;-60
2024/01/21 05:58:24;;;;;;;;;12.00;9.00;;;;;;;;5080124;27;45240;-60
2024/01/21 06:00:50;;;;;;;;;8.75;7.50;;;;;;;;5080079;28;45402;-60
2024/01/21 06:03:15;;;;;;;;;17.67;14.67;;;;;;;;5080111;27;45745;-60
2024/01/21 06:05:40;;;;;;;;;10.67;10.67;;;;;;;;5077790;27;45330;-60
2024/01/21 06:08:05;;;;;;;;;16.67;15.33;;;;;;;;5111737;27;46797;-60
2024/01/21 06:10:31;;;;;;;;;16.25;13.00;;;;;;;;5079057;27;45396;-60
2024/01/21 06:12:56;;;;;;;;;19.00;13.00;;;;;;;;5080034;28;46214;-60
2024/01/21 06:15:21;;;;;;;;;12.67;12.33;;;;;;;;5079621;28;45388;-60
2024/01/21 06:17:49;;;;;;;;;14.33;13.33;;;;;;;;5078146;28;45732;-60
2024/01/21 06:20:14;;;;;;;;;14.00;13.00;;;;;;;;5079672;27;45553;-60
2024/01/21 06:22:40;;;;;;;;;16.33;12.67;;;;;;;;5074821;28;45599;-60
2024/01/21 06:25:05;;;;;;;;;17.00;12.33;;;;;;;;5079578;28;45331;-60
2024/01/21 06:27:30;;;;;;;;;15.50;12.75;;;;;;;;5079817;27;45348;-60
2024/01/21 06:29:55;;;;;;;;;16.00;16.00;;;;;;;;5079367;27;45361;-60
2024/01/21 06:32:20;;;;;;;;;17.33;15.33;;;;;;;;5078633;28;45501;-60
2024/01/21 06:34:46;;;;;;;;;12.67;12.67;;;;;;;;5077677;28;45381;-60
2024/01/21 06:37:11;;;;;;;;;16.00;14.67;;;;;;;;5077868;27;45317;-60
2024/01/21 06:39:36;;;;;;;;;14.33;10.67;;;;;;;;5079662;28;45493;-60
2024/01/21 06:42:01;;;;;;;;;15.00;13.33;;;;;;;;5078074;28;47320;-60
2024/01/21 06:44:27;;;;;;;;;21.75;17.00;;;;;;;;5077697;28;45719;-60
2024/01/21 06:46:52;;;;;;;;;15.67;13.33;;;;;;;;5076906;27;45471;-60
2024/01/21 06:49:17;;;;;;;;;19.67;13.67;;;;;;;;5079212;28;45298;-60
2024/01/21 06:51:46;;;;;;;;;17.50;16.50;;;;;;;;5078749;27;45336;-60
2024/01/21 06:54:12;;;;;;;;;16.50;11.00;;;;;;;;5078969;27;45334;-60
2024/01/21 06:56:37;;;;;;;;;20.50;14.75;;;;;;;;5079095;28;45505;-60
2024/01/21 06:59:03;;;;;;;;;16.00;13.33;;;;;;;;5077464;28;45616;-60
2024/01/21 07:01:29;;;;;;;;;12.50;12.00;;;;;;;;5078109;27;45416;-60
2024/01/21 07:03:54;;;;;;;;;16.00;16.00;;;;;;;;5075362;27;45522;-60
2024/01/21 07:06:19;;;;;;;;;16.00;13.67;;;;;;;;5076821;28;46003;-60
2024/01/21 07:08:44;;;;;;;;;13.50;12.50;;;;;;;;5077836;27;45506;-60
2024/01/21 07:11:10;;;;;;;;;16.00;13.00;;;;;;;;5078884;27;46587;-60
2024/01/21 07:13:35;;;;;;;;;13.50;13.00;;;;;;;;5079076;28;45381;-60
2024/01/21 07:16:01;;;;;;;;;15.50;14.25;;;;;;;;5078681;28;45650;-61
2024/01/21 07:18:26;;;;;;;;;11.50;10.50;;;;;;;;5079113;27;45215;-60
2024/01/21 07:20:51;;;;;;;;;17.67;13.00;;;;;;;;5078495;28;46096;-60
2024/01/21 07:23:17;;;;;;;;;13.67;10.67;;;;;;;;5077090;28;45330;-60
2024/01/21 07:25:42;;;;;;;;;17.50;14.00;;;;;;;;5078693;28;45611;-60
2024/01/21 07:28:07;;;;;;;;;12.75;12.75;;;;;;;;5076876;28;45436;-61
2024/01/21 07:30:32;;;;;;;;;17.00;15.67;;;;;;;;5077466;28;46010;-60
2024/01/21 07:32:57;;;;;;;;;17.67;15.33;;;;;;;;5077982;28;45398;-60
2024/01/21 07:35:23;;;;;;;;;17.33;13.67;;;;;;;;5078733;27;45263;-60
2024/01/21 07:37:48;;;;;;;;;16.00;13.00;;;;;;;;5078370;28;46212;-60
2024/01/21 07:40:13;;;;;;;;;12.00;12.00;;;;;;;;5075867;28;46387;-60
2024/01/21 07:42:38;;;;;;;;;11.33;10.67;;;;;;;;5076369;28;45421;-60
2024/01/21 07:48:27;;;;;;;;;;;;;;;;;;;;;
2024/01/21 08:09:24;;;;;;;;;15.75;13.75;;;;;;;;5330661;22;45489;-60
2024/01/21 08:11:49;;;;;;;;;14.33;13.33;;;;;;;;4981639;28;45410;-60
2024/01/21 08:14:15;;;;;;;;;13.00;13.00;;;;;;;;4977273;28;46345;-60
2024/01/21 08:16:40;;;;;;;;;10.00;9.00;;;;;;;;4976813;28;45637;-60
2024/01/21 08:19:05;;;;;;;;;16.75;13.00;;;;;;;;4979838;28;45427;-60
2024/01/21 08:21:31;;;;;;;;;12.67;9.33;;;;;;;;4980991;28;45510;-60
2024/01/21 08:23:56;;;;;;;;;13.75;12.25;;;;;;;;4979158;28;47066;-60
2024/01/21 08:26:21;;;;;;;;;13.33;10.67;;;;;;;;4975986;28;45596;-61
2024/01/21 08:28:47;;;;;;;;;17.33;16.00;;;;;;;;4981420;28;45214;-60
2024/01/21 08:31:12;;;;;;;;;13.00;11.67;;;;;;;;4982005;28;45309;-61
2024/01/21 08:33:37;;;;;;;;;17.33;14.67;;;;;;;;4981387;28;45415;-60
2024/01/21 08:36:02;;;;;;;;;11.67;11.33;;;;;;;;4980789;28;45443;-61
2024/01/21 08:38:28;;;;;;;;;17.00;16.75;;;;;;;;4981695;28;45912;-61
2024/01/21 08:40:53;;;;;;;;;14.00;13.00;;;;;;;;4980448;28;45428;-61
2024/01/21 08:43:18;;;;;;;;;14.33;13.67;;;;;;;;4979873;28;46875;-61
2024/01/21 08:45:43;;;;;;;;;15.33;13.00;;;;;;;;4980755;28;45505;-61
2024/01/21 08:48:08;;;;;;;;;14.33;10.33;;;;;;;;4979528;28;45363;-60
2024/01/21 08:50:34;;;;;;;;;10.00;10.00;;;;;;;;4984844;28;45519;-61
2024/01/21 08:52:59;;;;;;;;;15.00;13.00;;;;;;;;4981442;28;46289;-61
2024/01/21 08:55:25;;;;;;;;;13.75;12.25;;;;;;;;4977943;28;46763;-61
2024/01/21 08:57:50;;;;;;;;;14.50;10.25;;;;;;;;4978173;28;45577;-60
2024/01/21 09:00:15;;;;;;;;;10.50;10.50;;;;;;;;4978194;28;45826;-61
2024/01/21 09:02:41;;;;;;;;;12.25;11.25;;;;;;;;4978039;28;46615;-62
2024/01/21 09:05:06;;;;;;;;;18.75;14.00;;;;;;;;4979814;28;45429;-62
2024/01/21 09:07:31;;;;;;;;;11.00;11.00;;;;;;;;4977986;28;45551;-62
2024/01/21 09:09:56;;;;;;;;;13.33;11.33;;;;;;;;4977473;28;45495;-61
2024/01/21 09:12:22;;;;;;;;;13.00;13.00;;;;;;;;4978209;28;45514;-62
2024/01/21 09:14:47;;;;;;;;;16.50;15.50;;;;;;;;4976546;28;45533;-61
2024/01/21 09:17:12;;;;;;;;;11.67;7.33;;;;;;;;4973299;28;45526;-61
2024/01/21 09:19:37;;;;;;;;;14.67;13.00;;;;;;;;4976081;28;45567;-62
2024/01/21 09:22:03;;;;;;;;;13.33;11.33;;;;;;;;4979155;28;45578;-62
2024/01/21 09:24:28;;;;;;;;;13.25;10.25;;;;;;;;4979054;28;45317;-61
2024/01/21 09:26:53;;;;;;;;;13.67;12.33;;;;;;;;4977975;28;45479;-61
2024/01/21 09:29:18;;;;;;;;;13.67;9.67;;;;;;;;4979674;28;45648;-62
2024/01/21 09:31:51;;;;;;;;;10.00;10.00;;;;;;;;4978526;28;47030;-61
2024/01/21 09:34:16;;;;;;;;;14.50;13.00;;;;;;;;4979716;28;45528;-61
2024/01/21 09:36:42;;;;;;;;;12.67;9.67;;;;;;;;4976764;28;45518;-61
2024/01/21 09:39:09;;;;;;;;;11.67;10.67;;;;;;;;4975803;28;45448;-62
2024/01/21 09:41:37;;;;;;;;;13.25;13.00;;;;;;;;4977239;28;48027;-62
2024/01/21 09:44:03;;;;;;;;;13.25;10.50;;;;;;;;4977933;28;45572;-62
2024/01/21 09:46:29;;;;;;;;;15.00;12.00;;;;;;;;4976671;28;45384;-62
2024/01/21 09:48:55;;;;;;;;;18.50;18.00;;;;;;;;4978430;28;45641;-63
2024/01/21 09:51:22;;;;;;;;;11.00;10.00;;;;;;;;4978853;28;45491;-62
2024/01/21 09:53:47;;;;;;;;;10.50;10.25;;;;;;;;4979066;28;45484;-62
2024/01/21 09:56:13;;;;;;;;;14.50;11.00;;;;;;;;4979499;28;45369;-62
2024/01/21 09:58:46;;;;;;;;;13.00;10.00;;;;;;;;4976251;28;45310;-62
2024/01/21 10:01:11;;;;;;;;;16.25;14.25;;;;;;;;4977882;28;46474;-62
2024/01/21 10:03:37;;;;;;;;;17.00;14.00;;;;;;;;4979857;28;45432;-62
2024/01/21 10:06:02;;;;;;;;;9.00;9.00;;;;;;;;4977390;28;45439;-62
2024/01/21 10:08:28;;;;;;;;;19.00;17.00;;;;;;;;4978605;28;45290;-62
2024/01/21 10:10:54;;;;;;;;;13.75;13.75;;;;;;;;4976470;28;45583;-62
2024/01/21 10:13:19;;;;;;;;;19.25;15.00;;;;;;;;4977538;28;45506;-62
2024/01/21 10:15:44;;;;;;;;;13.00;11.00;;;;;;;;4976733;28;45591;-62
2024/01/21 10:18:09;;;;;;;;;13.00;10.67;;;;;;;;4977127;28;45349;-62
2024/01/21 10:20:35;;;;;;;;;13.00;9.67;;;;;;;;4977634;28;46991;-62
2024/01/21 10:23:10;;;;;;;;;13.25;10.75;;;;;;;;4979220;28;45510;-62
2024/01/21 10:25:36;;;;;;;;;11.00;10.50;;;;;;;;4979058;28;45398;-63
2024/01/21 10:28:01;;;;;;;;;10.00;10.00;;;;;;;;4977368;28;45586;-62
2024/01/21 10:30:26;;;;;;;;;21.67;15.00;;;;;;;;4974281;28;48077;-62
2024/01/21 10:32:52;;;;;;;;;8.50;8.50;;;;;;;;4979263;28;45293;-62
2024/01/21 10:35:17;;;;;;;;;13.00;12.33;;;;;;;;4977842;28;45406;-62
2024/01/21 10:37:42;;;;;;;;;12.33;11.00;;;;;;;;4976985;28;45238;-62
2024/01/21 10:40:09;;;;;;;;;11.33;11.33;;;;;;;;4978980;28;45556;-62
2024/01/21 10:42:34;;;;;;;;;13.25;10.25;;;;;;;;4978654;28;45384;-62
2024/01/21 10:45:00;;;;;;;;;9.00;9.00;;;;;;;;4977073;28;45410;-62
2024/01/21 10:47:25;;;;;;;;;9.75;9.25;;;;;;;;4977905;28;45333;-62
2024/01/21 10:49:51;;;;;;;;;14.25;11.75;;;;;;;;4978666;28;45528;-62
2024/01/21 10:52:16;;;;;;;;;15.00;14.00;;;;;;;;4978868;28;45412;-62
2024/01/21 10:54:43;;;;;;;;;14.50;11.50;;;;;;;;4977877;28;46611;-62
2024/01/21 10:57:09;;;;;;;;;16.50;13.50;;;;;;;;4976578;28;45444;-62
2024/01/21 10:59:38;;;;;;;;;14.00;14.00;;;;;;;;4979716;28;46767;-62
2024/01/21 11:02:04;;;;;;;;;10.25;8.75;;;;;;;;4977360;28;45544;-62
2024/01/21 11:04:29;;;;;;;;;13.50;12.25;;;;;;;;4977479;28;45582;-62
2024/01/21 11:06:54;;;;;;;;;16.00;15.00;;;;;;;;4975655;28;45539;-62
2024/01/21 11:09:25;;;;;;;;;10.00;10.00;;;;;;;;4974018;28;45518;-63
2024/01/21 11:11:51;;;;;;;;;17.00;14.75;;;;;;;;4967139;28;45644;-62
2024/01/21 11:14:29;;;;;;;;;15.00;14.75;;;;;;;;4974802;28;45829;-63
2024/01/21 11:16:55;;;;;;;;;13.50;13.50;;;;;;;;4969777;28;45562;-62
2024/01/21 11:19:22;;;;;;;;;14.25;14.00;;;;;;;;4974063;28;46237;-62
2024/01/21 11:21:48;;;;;;;;;11.75;11.75;;;;;;;;4974309;28;45904;-62
2024/01/21 11:24:13;;;;;;;;;14.25;10.00;;;;;;;;4974890;28;45568;-62
2024/01/21 11:26:41;;;;;;;;;13.25;11.50;;;;;;;;4972625;28;45742;-63
2024/01/21 11:29:25;;;;;;;;;11.75;10.50;;;;;;;;4974478;28;46336;-63
2024/01/21 11:31:56;;;;;;;;;12.25;11.00;;;;;;;;4972852;28;45644;-63
2024/01/21 11:34:24;;;;;;;;;14.00;13.50;;;;;;;;4975194;28;45520;-63
2024/01/21 11:36:50;;;;;;;;;15.25;10.75;;;;;;;;4974347;28;45438;-63
2024/01/21 11:39:17;;;;;;;;;15.25;11.75;;;;;;;;4972939;28;47551;-63
2024/01/21 11:41:43;;;;;;;;;16.00;13.50;;;;;;;;4970326;28;45757;-63
2024/01/21 11:44:08;;;;;;;;;11.50;11.00;;;;;;;;4965115;28;45499;-62
2024/01/21 11:46:34;;;;;;;;;15.00;12.50;;;;;;;;4970143;28;45591;-62
2024/01/21 11:49:01;;;;;;;;;11.00;11.00;;;;;;;;4974691;28;45686;-62
2024/01/21 11:51:27;;;;;;;;;11.25;11.25;;;;;;;;4972514;28;45773;-62
2024/01/21 11:53:53;;;;;;;;;11.00;9.67;;;;;;;;4971843;28;45729;-62
2024/01/21 11:56:18;;;;;;;;;11.50;8.25;;;;;;;;4971597;28;45757;-62
2024/01/21 11:58:43;;;;;;;;;12.33;12.33;;;;;;;;4974691;28;45705;-62
2024/01/21 12:01:09;;;;;;;;;15.50;12.75;;;;;;;;4974288;28;45675;-64
2024/01/21 12:03:34;;;;;;;;;14.00;14.00;;;;;;;;4973618;28;45785;-60
2024/01/21 12:05:59;;;;;;;;;11.67;10.67;;;;;;;;4976097;28;45337;-62
2024/01/21 12:08:24;;;;;;;;;15.00;11.67;;;;;;;;4977408;28;47365;-62
2024/01/21 12:10:50;;;;;;;;;13.33;11.00;;;;;;;;4977374;28;45410;-62
2024/01/21 12:13:15;;;;;;;;;20.00;13.00;;;;;;;;4977928;28;45499;-62
2024/01/21 12:15:40;;;;;;;;;10.67;10.67;;;;;;;;4976666;28;45405;-62
2024/01/21 12:18:06;;;;;;;;;11.67;11.00;;;;;;;;4977592;28;45520;-62
2024/01/21 12:20:31;;;;;;;;;10.50;10.25;;;;;;;;4977368;28;45605;-62
2024/01/21 12:22:57;;;;;;;;;16.50;12.75;;;;;;;;4976520;28;46445;-63
2024/01/21 12:25:22;;;;;;;;;11.25;10.25;;;;;;;;4977526;28;45784;-62
2024/01/21 12:27:54;;;;;;;;;15.75;13.25;;;;;;;;4976162;28;46563;-62
2024/01/21 12:30:19;;;;;;;;;16.00;13.00;;;;;;;;4976078;28;45866;-62
2024/01/21 12:32:45;;;;;;;;;10.67;10.67;;;;;;;;4980084;28;45431;-62
2024/01/21 12:35:10;;;;;;;;;15.75;14.75;;;;;;;;4979032;28;45432;-62
2024/01/21 12:37:36;;;;;;;;;13.50;11.00;;;;;;;;4979191;28;48078;-62
2024/01/21 12:40:01;;;;;;;;;11.00;11.00;;;;;;;;4977450;28;45431;-63
2024/01/21 12:42:26;;;;;;;;;12.00;12.00;;;;;;;;4974797;28;45394;-62
2024/01/21 12:44:52;;;;;;;;;14.50;12.50;;;;;;;;4972773;28;45505;-62
2024/01/21 12:47:17;;;;;;;;;12.33;11.67;;;;;;;;4971116;28;45655;-62
2024/01/21 12:49:42;;;;;;;;;12.50;11.00;;;;;;;;4973106;28;45797;-62
2024/01/21 12:52:07;;;;;;;;;14.00;12.00;;;;;;;;4975222;28;45662;-64
2024/01/21 12:54:33;;;;;;;;;11.00;10.33;;;;;;;;4977088;28;45932;-62
2024/01/21 12:57:02;;;;;;;;;15.00;11.25;;;;;;;;4978506;28;45932;-62
2024/01/21 12:59:27;;;;;;;;;13.25;11.00;;;;;;;;4980270;28;45460;-62
2024/01/21 13:01:52;;;;;;;;;9.67;9.67;;;;;;;;4979303;28;45491;-63
2024/01/21 13:04:19;;;;;;;;;13.00;11.00;;;;;;;;4978817;28;45495;-62
2024/01/21 13:06:45;;;;;;;;;15.25;13.25;;;;;;;;4978336;28;47361;-63
2024/01/21 13:09:10;;;;;;;;;12.25;12.25;;;;;;;;4980062;28;45479;-63
2024/01/21 13:11:35;;;;;;;;;16.00;13.25;;;;;;;;4979764;28;45345;-63
2024/01/21 13:14:00;;;;;;;;;17.67;14.00;;;;;;;;4974833;28;45465;-62
2024/01/21 13:16:26;;;;;;;;;15.33;13.33;;;;;;;;4971740;28;46682;-63
2024/01/21 13:18:51;;;;;;;;;12.00;11.00;;;;;;;;4978703;28;45415;-62
2024/01/21 13:21:16;;;;;;;;;12.00;11.00;;;;;;;;4979962;28;45679;-60
2024/01/21 13:23:41;;;;;;;;;13.00;12.00;;;;;;;;4980486;28;45479;-60
2024/01/21 13:26:07;;;;;;;;;12.33;12.33;;;;;;;;4978844;28;46040;-60
2024/01/21 13:28:49;;;;;;;;;13.75;13.00;;;;;;;;4978029;28;45537;-60
2024/01/21 13:31:14;;;;;;;;;14.75;13.25;;;;;;;;4980268;28;45404;-60
2024/01/21 13:33:39;;;;;;;;;16.00;14.67;;;;;;;;4979851;28;45790;-60
2024/01/21 13:36:04;;;;;;;;;16.00;12.33;;;;;;;;4975409;28;48446;-63
2024/01/21 13:38:30;;;;;;;;;13.00;11.00;;;;;;;;4977685;28;45608;-61
2024/01/21 13:40:56;;;;;;;;;16.25;12.75;;;;;;;;4972569;28;45639;-62
2024/01/21 13:43:21;;;;;;;;;14.50;14.25;;;;;;;;4975925;28;45376;-62
2024/01/21 13:45:46;;;;;;;;;1.00;0.00;;;;;;;;4965731;28;47260;-62
2024/01/21 13:48:12;;;;;;;;;18.00;16.75;;;;;;;;4973466;28;45727;-61
2024/01/21 13:50:38;;;;;;;;;13.67;12.00;;;;;;;;4975986;28;45438;-61
2024/01/21 13:53:04;;;;;;;;;16.75;13.50;;;;;;;;4975899;28;45546;-62
2024/01/21 13:55:29;;;;;;;;;18.00;12.00;;;;;;;;4976045;28;45552;-62
2024/01/21 13:57:55;;;;;;;;;17.25;14.75;;;;;;;;4974365;28;45525;-62
2024/01/21 14:00:24;;;;;;;;;10.25;9.50;;;;;;;;4976512;28;45805;-62
2024/01/21 14:02:50;;;;;;;;;19.00;16.25;;;;;;;;4974506;28;45836;-62
2024/01/21 14:05:16;;;;;;;;;13.25;12.00;;;;;;;;4977572;28;45572;-62
2024/01/21 14:07:41;;;;;;;;;18.33;17.33;;;;;;;;4977934;28;45584;-65
2024/01/21 14:10:07;;;;;;;;;17.75;12.50;;;;;;;;4978502;28;45350;-62
2024/01/21 14:12:32;;;;;;;;;13.00;12.25;;;;;;;;4976836;28;45572;-63
2024/01/21 14:14:57;;;;;;;;;10.00;10.00;;;;;;;;4968866;28;46025;-61
2024/01/21 14:17:26;;;;;;;;;15.25;12.00;;;;;;;;4977852;28;45681;-61
2024/01/21 14:19:51;;;;;;;;;14.00;9.75;;;;;;;;4977029;28;45486;-61
2024/01/21 14:22:17;;;;;;;;;13.00;13.00;;;;;;;;4977928;28;45572;-61
2024/01/21 14:24:44;;;;;;;;;13.75;13.00;;;;;;;;4979293;28;45699;-63
2024/01/21 14:27:10;;;;;;;;;12.75;12.75;;;;;;;;4977646;28;45639;-63
2024/01/21 14:29:36;;;;;;;;;16.00;14.33;;;;;;;;4978288;28;45452;-63
2024/01/21 14:32:01;;;;;;;;;15.50;13.75;;;;;;;;4978623;28;45636;-63